createdAt,value
2023-05-12T00:01:48.754Z,1.30
2023-05-12T00:04:33.857Z,1.75
2023-05-12T00:07:18.979Z,1.73
2023-05-12T00:10:04.028Z,1.40
2023-05-12T00:12:50.035Z,1.40
2023-05-12T00:15:37.073Z,1.33
2023-05-12T00:18:23.037Z,1.88
2023-05-12T00:21:08.735Z,1.30
2023-05-12T00:23:53.568Z,1.30
2023-05-12T00:26:38.461Z,1.30
2023-05-12T00:29:23.370Z,1.45
2023-05-12T00:32:08.349Z,1.10
2023-05-12T00:34:57.395Z,1.30
2023-05-12T00:37:42.747Z,1.23
2023-05-12T00:40:27.974Z,1.50
2023-05-12T00:43:12.839Z,2.03
2023-05-12T00:45:57.753Z,0.80
2023-05-12T00:48:44.207Z,1.30
2023-05-12T00:51:29.526Z,2.05
2023-05-12T00:54:14.726Z,1.10
2023-05-12T00:56:59.907Z,1.33
2023-05-12T00:59:45.123Z,1.27
2023-05-12T01:02:31.003Z,1.10
2023-05-12T01:05:16.590Z,1.25
2023-05-12T01:08:03.169Z,1.20
2023-05-12T01:10:48.127Z,1.77
2023-05-12T01:13:33.073Z,1.77
2023-05-12T01:16:22.974Z,1.10
2023-05-12T01:19:14.956Z,1.35
2023-05-12T01:22:00.685Z,1.00
2023-05-12T01:24:59.076Z,1.30
2023-05-12T01:27:45.896Z,1.20
2023-05-12T01:30:32.470Z,1.38
2023-05-12T01:33:17.662Z,1.67
2023-05-12T01:36:02.764Z,2.75
2023-05-12T01:38:48.068Z,1.70
2023-05-12T01:41:33.027Z,1.00
2023-05-12T01:44:17.834Z,1.02
2023-05-12T01:47:02.857Z,1.00
2023-05-12T01:49:47.732Z,1.95
2023-05-12T01:52:32.942Z,2.58
2023-05-12T01:55:18.032Z,4.20
2023-05-12T01:58:03.158Z,3.63
2023-05-12T02:00:48.312Z,3.72
2023-05-12T02:03:33.195Z,1.80
2023-05-12T02:06:18.578Z,1.75
2023-05-12T02:09:03.604Z,2.08
2023-05-12T02:11:49.410Z,3.58
2023-05-12T02:14:34.591Z,1.88
2023-05-12T02:17:19.762Z,3.95
2023-05-12T02:20:05.391Z,1.50
2023-05-12T02:22:50.412Z,3.15
2023-05-12T02:25:35.792Z,2.65
2023-05-12T02:28:20.740Z,0.90
2023-05-12T02:31:05.584Z,1.60
2023-05-12T02:33:51.568Z,1.30
2023-05-12T02:36:36.359Z,0.90
2023-05-12T02:39:21.405Z,2.38
2023-05-12T02:42:07.134Z,1.58
2023-05-12T02:44:52.344Z,1.30
2023-05-12T02:47:37.539Z,1.10
2023-05-12T02:50:22.916Z,1.75
2023-05-12T02:53:07.835Z,1.90
2023-05-12T02:55:53.181Z,1.10
2023-05-12T02:58:38.070Z,2.45
2023-05-12T03:01:22.854Z,3.10
2023-05-12T03:04:07.750Z,0.85
2023-05-12T03:06:52.465Z,0.77
2023-05-12T03:09:37.391Z,1.10
2023-05-12T03:12:22.072Z,1.05
2023-05-12T03:15:07.827Z,1.92
2023-05-12T03:17:52.822Z,1.90
2023-05-12T03:20:37.686Z,1.42
2023-05-12T03:23:22.694Z,1.58
2023-05-12T03:26:07.613Z,1.13
2023-05-12T03:28:52.786Z,2.45
2023-05-12T03:31:38.354Z,1.35
2023-05-12T03:34:23.355Z,1.30
2023-05-12T03:37:08.512Z,1.30
2023-05-12T03:39:56.058Z,1.10
2023-05-12T03:42:40.983Z,1.02
2023-05-12T03:45:25.963Z,2.15
2023-05-12T03:48:10.888Z,1.17
2023-05-12T03:50:56.011Z,0.85
2023-05-12T03:53:45.136Z,1.60
2023-05-12T03:56:30.230Z,1.13
2023-05-12T03:59:16.142Z,1.00
2023-05-12T04:02:01.711Z,0.82
2023-05-12T04:04:47.253Z,1.33
2023-05-12T04:07:32.306Z,0.70
2023-05-12T04:10:17.665Z,1.35
2023-05-12T04:13:02.644Z,1.35
2023-05-12T04:15:49.196Z,0.85
2023-05-12T04:18:35.775Z,1.27
2023-05-12T04:21:20.988Z,1.80
2023-05-12T04:24:06.319Z,1.63
2023-05-12T04:26:51.373Z,3.80
2023-05-12T04:29:36.332Z,6.00
2023-05-12T04:32:21.765Z,0.93
2023-05-12T04:35:07.209Z,6.35
2023-05-12T04:37:52.695Z,3.15
2023-05-12T04:42:01.896Z,3.05
2023-05-12T04:44:46.949Z,4.53
2023-05-12T04:47:32.089Z,4.65
2023-05-12T04:50:17.458Z,7.07
2023-05-12T04:53:02.718Z,7.38
2023-05-12T04:55:47.518Z,8.25
2023-05-12T04:58:32.559Z,4.88
2023-05-12T05:01:18.104Z,6.32
2023-05-12T05:04:03.229Z,5.25
2023-05-12T05:06:48.216Z,5.65
2023-05-12T05:09:34.513Z,3.75
2023-05-12T05:12:21.237Z,3.85
2023-05-12T05:15:07.540Z,4.35
2023-05-12T05:17:52.600Z,8.73
2023-05-12T05:20:40.834Z,7.53
2023-05-12T05:23:28.770Z,5.40
2023-05-12T05:26:14.052Z,5.05
2023-05-12T05:28:59.256Z,7.50
2023-05-12T05:31:44.422Z,8.57
2023-05-12T05:34:29.613Z,6.72
2023-05-12T05:37:14.519Z,7.43
2023-05-12T05:39:59.399Z,4.70
2023-05-12T05:42:44.598Z,8.95
2023-05-12T05:45:29.911Z,10.40
2023-05-12T05:48:15.846Z,9.13
2023-05-12T05:51:00.948Z,7.80
2023-05-12T05:53:45.891Z,7.57
2023-05-12T05:56:31.681Z,8.07
2023-05-12T05:59:16.597Z,8.98
2023-05-12T06:02:01.600Z,9.25
2023-05-12T06:04:47.130Z,13.65
2023-05-12T06:07:31.972Z,12.88
2023-05-12T06:10:16.804Z,9.82
2023-05-12T06:13:02.150Z,12.90
2023-05-12T06:15:47.051Z,11.80
2023-05-12T06:18:33.914Z,7.28
2023-05-12T06:21:19.198Z,7.82
2023-05-12T06:24:04.267Z,8.90
2023-05-12T06:26:49.491Z,5.57
2023-05-12T06:29:34.759Z,8.43
2023-05-12T06:32:19.598Z,6.95
2023-05-12T06:35:05.276Z,4.00
2023-05-12T06:37:50.928Z,7.90
2023-05-12T06:40:36.029Z,6.55
2023-05-12T06:43:20.822Z,4.07
2023-05-12T06:46:06.928Z,5.22
2023-05-12T06:48:52.425Z,3.28
2023-05-12T06:51:37.612Z,4.38
2023-05-12T06:54:22.645Z,2.60
2023-05-12T06:57:07.711Z,3.00
2023-05-12T06:59:52.625Z,2.92
2023-05-12T07:02:37.689Z,3.55
2023-05-12T07:05:23.311Z,3.35
2023-05-12T07:08:08.778Z,2.92
2023-05-12T07:10:53.660Z,4.80
2023-05-12T07:13:39.097Z,7.53
2023-05-12T07:16:24.346Z,24.52
2023-05-12T07:19:09.633Z,19.08
2023-05-12T07:21:54.938Z,21.38
2023-05-12T07:24:40.179Z,23.13
2023-05-12T07:27:25.391Z,29.65
2023-05-12T07:30:11.221Z,17.85
2023-05-12T07:32:56.158Z,22.23
2023-05-12T07:35:40.978Z,21.60
2023-05-12T07:38:26.084Z,23.67
2023-05-12T07:41:11.447Z,17.35
2023-05-12T07:43:56.527Z,15.95
2023-05-12T07:46:41.555Z,20.08
2023-05-12T07:49:26.704Z,14.13
2023-05-12T07:52:11.947Z,15.48
2023-05-12T07:54:57.670Z,9.57
2023-05-12T07:57:42.943Z,10.68
2023-05-12T08:00:28.587Z,14.85
2023-05-12T08:03:13.628Z,10.25
2023-05-12T08:05:58.839Z,12.50
2023-05-12T08:08:43.999Z,10.80
2023-05-12T08:11:29.172Z,9.15
2023-05-12T08:14:14.100Z,7.25
2023-05-12T08:16:59.019Z,8.65
2023-05-12T08:19:43.883Z,6.78
2023-05-12T08:22:28.815Z,10.23
2023-05-12T08:25:13.795Z,11.90
2023-05-12T08:27:59.796Z,11.98
2023-05-12T08:30:45.494Z,10.20
2023-05-12T08:33:31.050Z,8.25
2023-05-12T08:36:16.219Z,6.72
2023-05-12T08:39:02.693Z,7.85
2023-05-12T08:41:56.840Z,5.88
2023-05-12T08:44:41.942Z,3.83
2023-05-12T08:47:28.597Z,4.15
2023-05-12T08:50:17.034Z,4.05
2023-05-12T08:53:04.319Z,4.50
2023-05-12T08:57:08.317Z,5.80
2023-05-12T08:58:55.234Z,5.07
2023-05-12T09:01:42.983Z,5.05
2023-05-12T09:04:28.356Z,5.18
2023-05-12T09:07:14.057Z,3.72
2023-05-12T09:10:01.078Z,10.13
2023-05-12T09:12:47.817Z,16.40
2023-05-12T09:15:39.002Z,8.23
2023-05-12T09:18:24.180Z,10.32
2023-05-12T09:21:09.147Z,8.23
2023-05-12T09:23:58.968Z,8.68
2023-05-12T09:26:47.430Z,7.60
2023-05-12T09:29:37.517Z,21.00
2023-05-12T09:32:32.845Z,21.27
2023-05-12T09:35:17.803Z,16.88
2023-05-12T09:38:08.703Z,12.35
2023-05-12T09:40:53.964Z,10.35
2023-05-12T09:43:45.783Z,10.93
2023-05-12T09:46:31.072Z,12.95
2023-05-12T09:49:22.373Z,6.40
2023-05-12T09:52:07.161Z,10.93
2023-05-12T09:54:52.698Z,6.50
2023-05-12T09:57:41.200Z,17.92
2023-05-12T10:00:38.483Z,7.20
2023-05-12T10:03:33.399Z,7.85
2023-05-12T10:06:26.531Z,6.85
2023-05-12T10:09:19.542Z,12.95
2023-05-12T10:12:06.272Z,10.43
2023-05-12T10:14:52.080Z,7.72
2023-05-12T10:17:37.522Z,7.72
2023-05-12T10:20:23.208Z,6.50
2023-05-12T10:23:12.184Z,7.65
2023-05-12T10:26:01.904Z,6.30
2023-05-12T10:28:47.713Z,5.03
2023-05-12T10:31:32.993Z,5.18
2023-05-12T10:34:19.301Z,4.75
2023-05-12T10:37:09.008Z,9.55
2023-05-12T10:39:54.352Z,3.63
2023-05-12T10:42:42.535Z,17.75
2023-05-12T10:45:28.235Z,9.50
2023-05-12T10:48:15.605Z,6.43
2023-05-12T10:51:10.654Z,7.05
2023-05-12T10:54:06.553Z,5.53
2023-05-12T10:56:52.741Z,18.45
2023-05-12T10:59:48.873Z,12.55
2023-05-12T11:02:36.762Z,10.98
2023-05-12T11:05:34.553Z,8.38
2023-05-12T11:08:19.979Z,6.78
2023-05-12T11:11:06.248Z,10.48
2023-05-12T11:13:51.816Z,4.93
2023-05-12T11:16:42.936Z,6.28
2023-05-12T11:19:29.073Z,4.63
2023-05-12T11:22:17.444Z,5.70
2023-05-12T11:25:11.731Z,6.43
2023-05-12T11:27:57.000Z,6.72
2023-05-12T11:30:54.948Z,6.03
2023-05-12T11:33:40.577Z,60.75
2023-05-12T11:36:25.374Z,143.43
2023-05-12T11:39:22.055Z,246.75
2023-05-12T11:42:13.458Z,308.17
2023-05-12T11:44:58.929Z,266.58
2023-05-12T11:47:43.836Z,290.67
2023-05-12T11:50:28.810Z,259.65
2023-05-12T11:53:17.120Z,279.52
2023-05-12T11:56:02.245Z,202.10
2023-05-12T11:58:56.277Z,205.60
2023-05-12T12:01:46.612Z,199.57
2023-05-12T12:04:36.246Z,197.52
2023-05-12T12:07:32.047Z,177.85
2023-05-12T12:10:18.598Z,169.23
2023-05-12T12:13:03.903Z,154.70
2023-05-12T12:15:50.643Z,139.73
2023-05-12T12:18:35.925Z,133.23
2023-05-12T12:21:22.364Z,135.70
2023-05-12T12:24:07.556Z,126.78
2023-05-12T12:26:52.814Z,120.63
2023-05-12T12:29:37.834Z,112.97
2023-05-12T12:32:22.817Z,109.70
2023-05-12T12:35:08.083Z,108.45
2023-05-12T12:37:52.986Z,93.00
2023-05-12T12:40:38.258Z,88.25
2023-05-12T12:43:23.042Z,84.45
2023-05-12T12:46:08.095Z,88.05
2023-05-12T12:48:53.464Z,84.55
2023-05-12T12:51:45.588Z,76.70
2023-05-12T12:54:31.294Z,70.95
2023-05-12T12:57:16.483Z,76.70
2023-05-12T13:00:02.144Z,65.15
2023-05-12T13:02:47.512Z,69.50
2023-05-12T13:05:32.779Z,60.38
2023-05-12T13:08:17.754Z,61.60
2023-05-12T13:11:03.046Z,56.33
2023-05-12T13:13:47.883Z,59.45
2023-05-12T13:16:32.874Z,55.42
2023-05-12T13:19:18.084Z,49.20
2023-05-12T13:22:03.299Z,44.30
2023-05-12T13:24:48.992Z,43.15
2023-05-12T13:27:35.375Z,41.33
2023-05-12T13:30:20.592Z,39.22
2023-05-12T13:33:06.361Z,38.25
2023-05-12T13:35:51.629Z,37.47
2023-05-12T13:38:36.518Z,35.58
2023-05-12T13:41:21.482Z,34.63
2023-05-12T13:44:06.314Z,34.38
2023-05-12T13:46:51.200Z,30.80
2023-05-12T13:49:36.898Z,28.75
2023-05-12T13:52:21.847Z,28.98
2023-05-12T13:55:07.224Z,24.52
2023-05-12T13:57:52.459Z,24.60
2023-05-12T14:00:37.764Z,23.67
2023-05-12T14:03:23.132Z,30.38
2023-05-12T14:06:08.439Z,34.55
2023-05-12T14:08:53.591Z,29.95
2023-05-12T14:11:38.932Z,28.75
2023-05-12T14:14:23.917Z,32.65
2023-05-12T14:17:08.756Z,28.67
2023-05-12T14:19:53.855Z,24.20
2023-05-12T14:22:38.938Z,22.20
2023-05-12T14:25:25.169Z,20.73
2023-05-12T14:28:10.566Z,20.65
2023-05-12T14:30:55.846Z,22.67
2023-05-12T14:33:41.418Z,23.85
2023-05-12T14:36:26.513Z,23.67
2023-05-12T14:39:11.563Z,17.27
2023-05-12T14:41:56.716Z,16.05
2023-05-12T14:44:41.666Z,20.90
2023-05-12T14:47:26.792Z,17.15
2023-05-12T14:50:12.003Z,15.15
2023-05-12T14:52:57.439Z,116.03
2023-05-12T14:55:42.573Z,191.32
2023-05-12T14:58:27.942Z,360.55
2023-05-12T15:01:13.077Z,377.73
2023-05-12T15:03:58.040Z,318.80
2023-05-12T15:06:42.910Z,292.00
2023-05-12T15:09:28.092Z,288.67
2023-05-12T15:12:13.253Z,272.58
2023-05-12T15:15:01.113Z,268.55
2023-05-12T15:17:46.290Z,247.07
2023-05-12T15:20:31.257Z,236.05
2023-05-12T15:23:16.311Z,226.68
2023-05-12T15:26:15.475Z,215.65
2023-05-12T15:29:06.263Z,205.20
2023-05-12T15:31:51.661Z,203.35
2023-05-12T15:34:37.195Z,191.70
2023-05-12T15:37:22.250Z,171.95
2023-05-12T15:40:08.067Z,172.10
2023-05-12T15:42:52.929Z,161.68
2023-05-12T15:45:37.911Z,158.98
2023-05-12T15:48:23.238Z,149.50
2023-05-12T15:51:08.517Z,139.75
2023-05-12T15:53:53.986Z,137.77
2023-05-12T15:56:39.155Z,136.80
2023-05-12T15:59:24.290Z,123.32
2023-05-12T16:02:09.438Z,119.20
2023-05-12T16:04:54.402Z,114.43
2023-05-12T16:07:39.778Z,114.40
2023-05-12T16:10:24.573Z,109.70
2023-05-12T16:13:09.563Z,96.57
2023-05-12T16:15:54.602Z,101.05
2023-05-12T16:18:40.138Z,89.32
2023-05-12T16:21:25.241Z,90.03
2023-05-12T16:24:11.088Z,83.25
2023-05-12T16:26:56.348Z,84.85
2023-05-12T16:29:45.386Z,74.30
2023-05-12T16:32:30.682Z,75.07
2023-05-12T16:35:15.909Z,69.72
2023-05-12T16:38:02.051Z,67.15
2023-05-12T16:40:46.981Z,62.42
2023-05-12T16:43:32.216Z,63.83
2023-05-12T16:46:17.538Z,56.85
2023-05-12T16:49:03.032Z,55.65
2023-05-12T16:51:48.427Z,53.03
2023-05-12T16:54:33.654Z,53.63
2023-05-12T16:57:19.080Z,46.17
2023-05-12T17:00:05.623Z,47.95
2023-05-12T17:02:50.878Z,44.63
2023-05-12T17:05:36.960Z,42.90
2023-05-12T17:08:22.411Z,43.65
2023-05-12T17:11:08.131Z,42.10
2023-05-12T17:13:53.729Z,43.17
2023-05-12T17:16:38.721Z,38.40
2023-05-12T17:19:24.130Z,34.17
2023-05-12T17:22:09.589Z,34.17
2023-05-12T17:24:54.805Z,241.55
2023-05-12T17:27:40.250Z,294.08
2023-05-12T17:30:25.114Z,255.77
2023-05-12T17:33:10.621Z,238.63
2023-05-12T17:36:10.842Z,274.58
2023-05-12T17:38:57.058Z,279.60
2023-05-12T17:41:43.914Z,316.23
2023-05-12T17:44:29.941Z,418.52
2023-05-12T17:47:15.304Z,355.40
2023-05-12T17:50:00.380Z,328.40
2023-05-12T17:52:45.182Z,355.00
2023-05-12T17:55:30.034Z,320.50
2023-05-12T17:58:14.915Z,287.67
2023-05-12T18:00:59.997Z,299.63
2023-05-12T18:03:44.819Z,268.10
2023-05-12T18:06:30.390Z,248.88
2023-05-12T18:09:17.706Z,249.07
2023-05-12T18:12:02.702Z,233.32
2023-05-12T18:14:47.647Z,207.57
2023-05-12T18:17:33.071Z,198.70
2023-05-12T18:20:18.922Z,200.02
2023-05-12T18:23:03.911Z,206.95
2023-05-12T18:25:48.978Z,198.02
2023-05-12T18:28:33.906Z,173.00
2023-05-12T18:31:20.020Z,160.25
2023-05-12T18:34:05.305Z,156.57
2023-05-12T18:36:50.168Z,143.52
2023-05-12T18:39:35.755Z,133.88
2023-05-12T18:42:21.042Z,128.02
2023-05-12T18:45:06.599Z,130.13
2023-05-12T18:47:51.780Z,115.85
2023-05-12T18:50:36.812Z,108.45
2023-05-12T18:53:22.305Z,110.18
2023-05-12T18:56:07.133Z,101.13
2023-05-12T18:58:52.151Z,95.22
2023-05-12T19:01:37.216Z,86.93
2023-05-12T19:04:22.552Z,78.22
2023-05-12T19:07:09.801Z,78.05
2023-05-12T19:09:55.805Z,75.75
2023-05-12T19:12:40.884Z,68.63
2023-05-12T19:15:26.503Z,72.35
2023-05-12T19:18:11.505Z,65.50
2023-05-12T19:20:56.711Z,63.05
2023-05-12T19:23:41.798Z,60.20
2023-05-12T19:26:27.052Z,56.30
2023-05-12T19:29:12.170Z,56.10
2023-05-12T19:31:57.051Z,52.50
2023-05-12T19:34:42.194Z,46.17
2023-05-12T19:37:27.580Z,47.75
2023-05-12T19:40:13.085Z,47.25
2023-05-12T19:42:58.218Z,41.13
2023-05-12T19:45:43.185Z,90.55
2023-05-12T19:48:28.045Z,358.10
2023-05-12T19:51:12.961Z,266.20
2023-05-12T19:53:58.161Z,313.02
2023-05-12T19:56:43.265Z,324.05
2023-05-12T19:59:28.022Z,363.20
2023-05-12T20:02:14.215Z,322.02
2023-05-12T20:05:00.670Z,308.02
2023-05-12T20:07:45.943Z,293.77
2023-05-12T20:10:30.905Z,273.63
2023-05-12T20:13:16.064Z,261.77
2023-05-12T20:16:01.001Z,259.13
2023-05-12T20:18:46.430Z,239.68
2023-05-12T20:21:31.513Z,220.40
2023-05-12T20:24:16.406Z,222.07
2023-05-12T20:27:01.395Z,198.93
2023-05-12T20:29:46.910Z,203.45
2023-05-12T20:32:32.179Z,188.13
2023-05-12T20:35:17.293Z,174.07
2023-05-12T20:38:02.879Z,166.90
2023-05-12T20:40:48.037Z,160.70
2023-05-12T20:43:33.055Z,150.57
2023-05-12T20:46:18.317Z,146.43
2023-05-12T20:49:03.673Z,139.80
2023-05-12T20:51:48.786Z,135.75
2023-05-12T20:54:33.676Z,126.32
2023-05-12T20:57:18.709Z,122.43
2023-05-12T21:00:04.158Z,107.90
2023-05-12T21:02:52.152Z,109.40
2023-05-12T21:05:39.079Z,100.20
2023-05-12T21:08:24.249Z,95.72
2023-05-12T21:11:14.794Z,92.13
2023-05-12T21:16:45.730Z,84.28
2023-05-12T21:19:30.855Z,73.15
2023-05-12T21:22:16.094Z,74.97
2023-05-12T21:25:01.264Z,73.43
2023-05-12T21:27:47.413Z,67.38
2023-05-12T21:30:32.546Z,65.07
2023-05-12T21:33:17.767Z,64.72
2023-05-12T21:36:03.429Z,59.13
2023-05-12T21:38:48.409Z,59.20
2023-05-12T21:41:33.346Z,54.65
2023-05-12T21:44:18.317Z,55.55
2023-05-12T21:47:04.360Z,51.70
2023-05-12T21:49:56.849Z,46.83
2023-05-12T21:52:41.901Z,46.53
2023-05-12T21:55:26.781Z,44.08
2023-05-12T21:58:11.692Z,41.67
2023-05-12T22:00:56.547Z,39.47
2023-05-12T22:03:41.751Z,36.38
2023-05-12T22:06:26.958Z,33.50
2023-05-12T22:09:12.188Z,34.72
2023-05-12T22:11:57.155Z,35.70
2023-05-12T22:14:42.946Z,31.33
2023-05-12T22:17:28.335Z,28.48
2023-05-12T22:20:13.546Z,27.98
2023-05-12T22:22:59.328Z,29.00
2023-05-12T22:25:44.118Z,25.90
2023-05-12T22:28:29.047Z,24.33
2023-05-12T22:31:13.898Z,23.95
2023-05-12T22:33:58.851Z,22.90
2023-05-12T22:36:43.838Z,20.05
2023-05-12T22:39:28.769Z,20.10
2023-05-12T22:42:13.837Z,20.25
2023-05-12T22:45:00.765Z,21.40
2023-05-12T22:47:45.989Z,18.45
2023-05-12T22:50:30.812Z,18.05
2023-05-12T22:53:15.864Z,16.15
2023-05-12T22:56:01.299Z,16.88
2023-05-12T22:58:46.417Z,15.88
2023-05-12T23:01:31.605Z,14.70
2023-05-12T23:04:16.975Z,12.63
2023-05-12T23:07:02.099Z,14.02
2023-05-12T23:09:47.148Z,13.60
2023-05-12T23:12:32.060Z,11.68
2023-05-12T23:15:17.429Z,10.77
2023-05-12T23:18:02.278Z,11.52
2023-05-12T23:20:47.246Z,11.88
2023-05-12T23:23:33.233Z,11.35
2023-05-12T23:26:18.235Z,9.93
2023-05-12T23:29:04.083Z,10.25
2023-05-12T23:31:49.176Z,9.85
2023-05-12T23:34:34.124Z,7.97
2023-05-12T23:37:19.983Z,9.38
2023-05-12T23:40:05.648Z,8.80
2023-05-12T23:42:50.696Z,7.38
2023-05-12T23:45:35.864Z,6.63
2023-05-12T23:48:21.244Z,6.88
2023-05-12T23:51:06.202Z,6.60
2023-05-12T23:53:51.637Z,7.25
2023-05-12T23:56:36.552Z,5.72
2023-05-12T23:59:21.821Z,6.03
